Wallaceburg, Canada
Current Conditions -  °F | °C
As of 1:58 AM on Saturday 29 Nov 2014 (Local Time) from KMTC Reporting Station
Overcast Overcast  
Wind Chill: 22°   Ceiling: 4400
Heat Index: 31°   Visibility: 10mi
Dew Point: 27°   Wind: 12mph
Humidity: 85%   Direction: 180°S
Pressure: 30.03"   Gusts: NA
Location:  42.58°N, 82.37°W
Report Text: KMTC 290658Z AUTO 18010KT 10SM BKN044 OVC070 00/M03 A3003 RMK AO2 UPE0600 SLP180 P0000 T10051027
Loading
Personal Weather Stations






























Interactive Weather Map New forecast layout! Learn more

10-Day Weather Forecast

Advertisements
Track Severe Weather on mobile